Time;durP1;ratioP1;P1;durP2;ratioP2;P2;SDS_P1;SDS_P2;PMS_P1;PMS_P2;Temp;Humidity;BMP_temperature;BMP_pressure;BME280_temperature;BME280_humidity;BME280_pressure;Samples;Min_cycle;Max_cycle;Signal;HPM_P1;HPM_P2
2022/07/23 00:00:23;;;;;;;1.08;0.90;;;;;;;;;;5066865;28;20249;-17
2022/07/23 00:02:51;;;;;;;1.13;0.82;;;;;;;;;;5059689;28;20237;-16
2022/07/23 00:05:19;;;;;;;1.23;1.00;;;;;;;;;;5070040;28;20284;-17
2022/07/23 00:07:47;;;;;;;1.55;1.00;;;;;;;;;;5070247;28;20232;-16
2022/07/23 00:10:14;;;;;;;0.90;0.90;;;;;;;;;;5070457;28;20316;-16
2022/07/23 00:12:42;;;;;;;1.63;0.93;;;;;;;;;;5064705;28;20244;-17
2022/07/23 00:15:18;;;;;;;1.95;0.90;;;;;;;;;;5057540;28;20229;-16
2022/07/23 00:17:45;;;;;;;0.93;0.80;;;;;;;;;;5066374;28;20750;-16
2022/07/23 00:20:13;;;;;;;0.85;0.70;;;;;;;;;;5061586;28;20246;-16
2022/07/23 00:22:47;;;;;;;2.15;0.93;;;;;;;;;;5048390;28;20237;-16
2022/07/23 00:25:15;;;;;;;1.90;1.20;;;;;;;;;;5060008;28;20722;-16
2022/07/23 00:27:58;;;;;;;1.70;0.70;;;;;;;;;;5069898;28;20256;-17
2022/07/23 00:30:26;;;;;;;1.10;1.00;;;;;;;;;;5067186;28;20325;-17
2022/07/23 00:32:54;;;;;;;1.30;0.90;;;;;;;;;;5064955;28;20270;-17
2022/07/23 00:35:23;;;;;;;1.75;1.00;;;;;;;;;;5058822;28;20292;-16
2022/07/23 00:37:52;;;;;;;2.35;0.90;;;;;;;;;;5063661;28;20988;-16
2022/07/23 00:40:19;;;;;;;1.52;1.00;;;;;;;;;;5069402;28;20242;-17
2022/07/23 00:42:46;;;;;;;1.30;1.00;;;;;;;;;;5057217;28;20702;-17
2022/07/23 00:45:14;;;;;;;1.23;1.05;;;;;;;;;;5053566;28;20625;-17
2022/07/23 00:47:41;;;;;;;1.50;1.00;;;;;;;;;;5062683;28;20234;-17
2022/07/23 00:50:09;;;;;;;1.00;0.80;;;;;;;;;;5070225;28;20677;-17
2022/07/23 00:52:37;;;;;;;1.98;0.90;;;;;;;;;;5066467;28;20233;-17
2022/07/23 00:55:06;;;;;;;1.45;0.90;;;;;;;;;;5072968;28;20656;-17
2022/07/23 00:57:33;;;;;;;3.05;0.95;;;;;;;;;;5060268;28;20708;-16
2022/07/23 01:00:01;;;;;;;2.13;1.00;;;;;;;;;;5067128;28;20246;-17
2022/07/23 01:02:28;;;;;;;1.70;0.85;;;;;;;;;;5059412;28;20324;-16
2022/07/23 01:04:55;;;;;;;1.55;0.95;;;;;;;;;;5072232;28;20308;-17
2022/07/23 01:07:23;;;;;;;1.45;0.90;;;;;;;;;;5070171;28;20233;-16
2022/07/23 01:09:50;;;;;;;1.45;1.00;;;;;;;;;;5059880;28;20229;-16
2022/07/23 01:12:19;;;;;;;1.42;0.88;;;;;;;;;;5072976;28;20238;-16
2022/07/23 01:14:46;;;;;;;1.00;0.80;;;;;;;;;;5072970;28;20240;-16
2022/07/23 01:17:14;;;;;;;2.38;1.00;;;;;;;;;;5066918;28;20222;-17
2022/07/23 01:19:41;;;;;;;1.67;1.08;;;;;;;;;;5059158;28;20238;-17
2022/07/23 01:22:08;;;;;;;1.98;1.10;;;;;;;;;;5051511;28;20241;-16
2022/07/23 01:24:37;;;;;;;1.23;0.98;;;;;;;;;;5053111;28;20784;-17
2022/07/23 01:27:05;;;;;;;1.77;1.00;;;;;;;;;;5055912;28;20635;-17
2022/07/23 01:29:32;;;;;;;1.88;0.82;;;;;;;;;;5055562;28;20324;-17
2022/07/23 01:32:00;;;;;;;1.27;0.70;;;;;;;;;;5055649;28;20264;-16
2022/07/23 01:34:27;;;;;;;1.52;0.80;;;;;;;;;;5053480;28;20230;-17
2022/07/23 01:36:54;;;;;;;1.50;1.10;;;;;;;;;;5047020;28;20613;-16
2022/07/23 01:39:22;;;;;;;1.10;1.00;;;;;;;;;;5064602;28;21268;-16
2022/07/23 01:41:51;;;;;;;2.00;0.95;;;;;;;;;;5072428;28;20778;-16
2022/07/23 01:44:18;;;;;;;1.55;0.90;;;;;;;;;;5069586;28;20221;-16
2022/07/23 01:46:46;;;;;;;2.33;1.20;;;;;;;;;;5050773;28;20234;-16
2022/07/23 01:49:13;;;;;;;1.17;1.00;;;;;;;;;;5055517;28;20277;-17
2022/07/23 01:51:59;;;;;;;0.77;0.70;;;;;;;;;;5046742;28;20227;-16
2022/07/23 01:54:26;;;;;;;1.90;1.00;;;;;;;;;;5066510;28;20352;-16
2022/07/23 01:56:55;;;;;;;1.70;1.10;;;;;;;;;;5071328;28;20222;-16
2022/07/23 01:59:22;;;;;;;1.40;1.10;;;;;;;;;;5061468;28;20229;-17
2022/07/23 02:01:51;;;;;;;1.58;1.00;;;;;;;;;;5057481;28;20240;-17
2022/07/23 02:04:18;;;;;;;1.75;1.00;;;;;;;;;;5054524;28;20226;-16
2022/07/23 02:06:46;;;;;;;1.05;0.80;;;;;;;;;;5051933;28;21066;-16
2022/07/23 02:09:13;;;;;;;1.75;1.00;;;;;;;;;;5056867;28;20636;-17
2022/07/23 02:11:40;;;;;;;1.63;0.95;;;;;;;;;;5072058;28;20233;-17
2022/07/23 02:14:09;;;;;;;2.13;1.00;;;;;;;;;;5072134;28;20229;-16
2022/07/23 02:16:37;;;;;;;1.70;0.95;;;;;;;;;;5069528;28;20308;-16
2022/07/23 02:19:04;;;;;;;1.33;0.90;;;;;;;;;;5071233;28;20237;-16
2022/07/23 02:21:32;;;;;;;1.95;0.95;;;;;;;;;;5052477;28;20968;-17
2022/07/23 02:23:59;;;;;;;2.78;1.02;;;;;;;;;;5072713;28;20237;-16
2022/07/23 02:26:26;;;;;;;1.33;1.17;;;;;;;;;;5067462;28;20267;-17
2022/07/23 02:28:54;;;;;;;1.33;0.80;;;;;;;;;;5060267;28;20233;-17
2022/07/23 02:31:22;;;;;;;1.52;1.02;;;;;;;;;;5066286;28;20818;-17
2022/07/23 02:33:50;;;;;;;1.95;0.93;;;;;;;;;;5072333;28;20295;-17
2022/07/23 02:36:17;;;;;;;2.25;1.30;;;;;;;;;;5065294;28;20238;-17
2022/07/23 02:38:45;;;;;;;1.08;0.82;;;;;;;;;;5051549;28;20245;-16
2022/07/23 02:41:12;;;;;;;2.40;1.17;;;;;;;;;;5055028;28;20329;-16
2022/07/23 02:43:40;;;;;;;1.20;0.95;;;;;;;;;;5062272;28;20226;-17
2022/07/23 02:46:07;;;;;;;1.75;1.20;;;;;;;;;;5066137;28;20240;-17
2022/07/23 02:48:36;;;;;;;0.77;0.60;;;;;;;;;;5071297;28;20238;-16
2022/07/23 02:51:03;;;;;;;1.60;1.15;;;;;;;;;;5054850;28;20324;-16
2022/07/23 02:53:36;;;;;;;1.13;1.00;;;;;;;;;;5046529;28;20717;-16
2022/07/23 02:56:04;;;;;;;1.80;0.90;;;;;;;;;;5051034;28;20265;-16
2022/07/23 02:58:31;;;;;;;1.05;0.93;;;;;;;;;;5059295;28;20229;-17
2022/07/23 03:00:58;;;;;;;2.58;1.00;;;;;;;;;;5063560;28;20241;-16
2022/07/23 03:03:26;;;;;;;1.42;1.20;;;;;;;;;;5052886;28;20281;-16
2022/07/23 03:05:57;;;;;;;1.08;0.98;;;;;;;;;;5051124;28;20244;-17
2022/07/23 03:08:25;;;;;;;1.48;1.00;;;;;;;;;;5064253;28;20732;-17
2022/07/23 03:10:52;;;;;;;1.08;0.90;;;;;;;;;;5061903;28;20995;-17
2022/07/23 03:13:20;;;;;;;1.48;0.95;;;;;;;;;;5057176;28;20320;-16
2022/07/23 03:15:47;;;;;;;3.65;1.00;;;;;;;;;;5059478;28;20230;-16
2022/07/23 03:18:14;;;;;;;1.60;0.98;;;;;;;;;;5066854;28;20229;-16
2022/07/23 03:20:42;;;;;;;1.00;0.90;;;;;;;;;;5070996;28;20231;-16
2022/07/23 03:23:11;;;;;;;2.92;0.95;;;;;;;;;;5059345;28;20245;-17
2022/07/23 03:25:38;;;;;;;1.77;0.98;;;;;;;;;;5036309;28;21063;-16
2022/07/23 03:28:05;;;;;;;1.55;0.90;;;;;;;;;;5063508;28;20684;-16
2022/07/23 03:30:33;;;;;;;2.30;1.10;;;;;;;;;;5065990;28;20232;-16
2022/07/23 03:33:00;;;;;;;1.88;1.10;;;;;;;;;;5061136;28;20233;-17
2022/07/23 03:35:27;;;;;;;2.25;1.10;;;;;;;;;;5056412;28;20229;-16
2022/07/23 03:37:55;;;;;;;1.35;1.10;;;;;;;;;;5055113;28;20253;-17
2022/07/23 03:40:23;;;;;;;1.73;0.88;;;;;;;;;;5065563;28;20240;-17
2022/07/23 03:42:51;;;;;;;4.28;1.35;;;;;;;;;;5070865;28;20333;-17
2022/07/23 03:45:18;;;;;;;1.30;1.02;;;;;;;;;;5068491;28;20233;-16
2022/07/23 03:47:46;;;;;;;1.40;1.02;;;;;;;;;;5064019;28;20230;-16
2022/07/23 03:50:13;;;;;;;1.20;0.90;;;;;;;;;;5050455;28;20232;-17
2022/07/23 03:52:40;;;;;;;1.13;0.95;;;;;;;;;;5040117;28;20234;-16
2022/07/23 03:55:08;;;;;;;0.98;0.88;;;;;;;;;;5060473;28;20231;-17
2022/07/23 03:57:36;;;;;;;1.10;0.80;;;;;;;;;;5069838;28;20231;-17
2022/07/23 04:00:05;;;;;;;0.90;0.90;;;;;;;;;;5062210;28;20324;-16
2022/07/23 04:02:32;;;;;;;0.85;0.75;;;;;;;;;;5061048;28;20245;-17
2022/07/23 04:05:00;;;;;;;1.95;0.90;;;;;;;;;;5063098;28;21044;-17
2022/07/23 04:07:28;;;;;;;1.17;1.08;;;;;;;;;;5064291;28;20229;-16
2022/07/23 04:09:55;;;;;;;2.45;1.13;;;;;;;;;;5068907;28;20225;-16
2022/07/23 04:12:22;;;;;;;1.13;1.02;;;;;;;;;;5070368;28;20260;-16
2022/07/23 04:14:51;;;;;;;1.45;0.90;;;;;;;;;;5066318;28;20236;-16
2022/07/23 04:17:18;;;;;;;1.65;0.85;;;;;;;;;;5060765;28;20233;-16
2022/07/23 04:19:46;;;;;;;1.75;1.02;;;;;;;;;;5070381;28;20240;-17
2022/07/23 04:22:13;;;;;;;1.77;1.02;;;;;;;;;;5054534;28;20253;-16
2022/07/23 04:24:41;;;;;;;1.55;0.90;;;;;;;;;;5068126;28;20225;-16
2022/07/23 04:27:08;;;;;;;1.88;1.17;;;;;;;;;;5073737;28;20696;-17
2022/07/23 04:29:35;;;;;;;0.93;0.75;;;;;;;;;;5073762;28;20228;-16
2022/07/23 04:32:04;;;;;;;0.95;0.85;;;;;;;;;;5058941;28;20233;-16
2022/07/23 04:34:32;;;;;;;1.27;0.70;;;;;;;;;;5060995;28;20233;-17
2022/07/23 04:36:59;;;;;;;1.10;0.80;;;;;;;;;;5072084;28;20236;-16
2022/07/23 04:39:26;;;;;;;1.77;0.82;;;;;;;;;;5073620;28;20243;-16
2022/07/23 04:41:54;;;;;;;2.03;0.70;;;;;;;;;;5066173;28;20244;-16
2022/07/23 04:44:21;;;;;;;1.75;0.88;;;;;;;;;;5072460;28;20232;-16
2022/07/23 04:46:49;;;;;;;1.77;0.80;;;;;;;;;;5070384;28;20233;-16
2022/07/23 04:49:18;;;;;;;0.80;0.80;;;;;;;;;;5055542;28;20767;-16
2022/07/23 04:51:45;;;;;;;1.25;0.80;;;;;;;;;;5045980;28;20288;-16
2022/07/23 04:54:13;;;;;;;0.98;0.75;;;;;;;;;;5053026;28;20233;-16
2022/07/23 04:56:40;;;;;;;1.75;0.80;;;;;;;;;;5073125;28;20236;-17
2022/07/23 04:59:08;;;;;;;1.13;0.77;;;;;;;;;;5072211;28;20233;-16
2022/07/23 05:01:35;;;;;;;1.95;0.80;;;;;;;;;;5060285;28;20232;-17
2022/07/23 05:04:02;;;;;;;0.70;0.63;;;;;;;;;;5064342;28;21011;-16
2022/07/23 05:06:31;;;;;;;1.02;0.85;;;;;;;;;;5072666;28;20255;-16
2022/07/23 05:08:59;;;;;;;1.70;0.80;;;;;;;;;;5061469;28;20236;-16
2022/07/23 05:11:27;;;;;;;0.80;0.80;;;;;;;;;;5051993;28;20321;-16
2022/07/23 05:13:54;;;;;;;1.10;0.85;;;;;;;;;;5063786;28;20265;-16
2022/07/23 05:16:21;;;;;;;1.20;0.77;;;;;;;;;;5062410;28;20317;-16
2022/07/23 05:18:49;;;;;;;1.75;1.00;;;;;;;;;;5073056;28;20237;-16
2022/07/23 05:21:16;;;;;;;1.77;0.80;;;;;;;;;;5060128;28;20310;-16
2022/07/23 05:23:45;;;;;;;1.15;0.90;;;;;;;;;;5059835;28;20238;-16
2022/07/23 05:26:12;;;;;;;2.05;0.80;;;;;;;;;;5062810;28;20321;-16
2022/07/23 05:28:40;;;;;;;0.85;0.80;;;;;;;;;;5045486;28;20233;-16
2022/07/23 05:31:12;;;;;;;1.92;0.82;;;;;;;;;;5063108;28;20238;-17
2022/07/23 05:33:40;;;;;;;2.22;0.75;;;;;;;;;;5072109;28;20353;-16
2022/07/23 05:36:07;;;;;;;1.13;0.93;;;;;;;;;;5071452;28;20285;-16
2022/07/23 05:38:35;;;;;;;1.15;0.90;;;;;;;;;;5066302;28;20234;-16
2022/07/23 05:41:04;;;;;;;1.00;0.80;;;;;;;;;;5044626;28;20229;-16
2022/07/23 05:43:31;;;;;;;1.23;0.70;;;;;;;;;;5060028;28;20296;-16
2022/07/23 05:45:59;;;;;;;1.15;0.88;;;;;;;;;;5068057;28;20253;-16
2022/07/23 05:48:26;;;;;;;1.30;0.85;;;;;;;;;;5060878;28;20906;-16
2022/07/23 05:50:54;;;;;;;1.23;0.90;;;;;;;;;;5055600;28;20226;-17
2022/07/23 05:53:21;;;;;;;1.70;0.88;;;;;;;;;;5062450;28;20260;-16
2022/07/23 05:55:48;;;;;;;2.35;0.77;;;;;;;;;;5052027;28;20222;-16
2022/07/23 05:58:17;;;;;;;2.30;0.70;;;;;;;;;;5058086;28;20786;-16
2022/07/23 06:00:45;;;;;;;0.90;0.80;;;;;;;;;;5060500;28;20234;-16
2022/07/23 06:03:12;;;;;;;2.13;0.73;;;;;;;;;;5071841;28;20238;-16
2022/07/23 06:05:40;;;;;;;1.20;0.93;;;;;;;;;;5062181;28;20237;-17
2022/07/23 06:08:07;;;;;;;1.55;1.00;;;;;;;;;;5070956;28;20236;-16
2022/07/23 06:10:35;;;;;;;1.13;0.70;;;;;;;;;;5059865;28;20845;-16
2022/07/23 06:13:02;;;;;;;0.63;0.60;;;;;;;;;;5069743;28;20229;-16
2022/07/23 06:15:31;;;;;;;3.13;0.90;;;;;;;;;;5068464;28;20973;-16
2022/07/23 06:17:58;;;;;;;1.63;0.80;;;;;;;;;;5068166;28;20233;-16
2022/07/23 06:20:25;;;;;;;1.92;1.13;;;;;;;;;;5068574;28;20734;-16
2022/07/23 06:22:53;;;;;;;1.02;0.73;;;;;;;;;;5060199;28;20249;-17
2022/07/23 06:25:20;;;;;;;2.25;0.93;;;;;;;;;;5057940;28;20237;-17
2022/07/23 06:27:48;;;;;;;0.73;0.70;;;;;;;;;;5071773;28;20230;-17
2022/07/23 06:30:17;;;;;;;0.70;0.70;;;;;;;;;;5066746;28;21140;-16
2022/07/23 06:32:46;;;;;;;0.90;0.77;;;;;;;;;;5062801;28;20241;-17
2022/07/23 06:35:13;;;;;;;2.20;1.08;;;;;;;;;;5057658;28;20320;-17
2022/07/23 06:37:41;;;;;;;1.20;0.60;;;;;;;;;;5071677;28;20620;-16
2022/07/23 06:40:09;;;;;;;1.52;1.00;;;;;;;;;;5071919;28;20235;-16
2022/07/23 06:42:38;;;;;;;1.50;0.80;;;;;;;;;;5051870;28;20230;-17
2022/07/23 06:45:06;;;;;;;1.25;1.05;;;;;;;;;;5051252;28;20230;-16
2022/07/23 06:47:34;;;;;;;2.50;0.80;;;;;;;;;;5065503;28;20233;-16
2022/07/23 06:50:03;;;;;;;0.93;0.70;;;;;;;;;;5060743;28;20229;-17
2022/07/23 06:52:30;;;;;;;1.55;1.00;;;;;;;;;;5043633;28;21071;-16
2022/07/23 06:54:58;;;;;;;1.00;0.80;;;;;;;;;;5055086;28;20802;-17
2022/07/23 06:57:26;;;;;;;0.50;0.50;;;;;;;;;;5066418;28;20629;-16
2022/07/23 06:59:53;;;;;;;1.50;0.90;;;;;;;;;;5071640;28;20232;-16
2022/07/23 07:02:22;;;;;;;0.95;0.80;;;;;;;;;;5065763;28;20237;-16
2022/07/23 07:04:49;;;;;;;0.65;0.55;;;;;;;;;;5064691;28;20265;-17
2022/07/23 07:07:18;;;;;;;1.95;0.73;;;;;;;;;;5063404;28;20237;-17
2022/07/23 07:09:46;;;;;;;1.80;0.90;;;;;;;;;;5056900;28;20228;-16
2022/07/23 07:12:14;;;;;;;1.23;0.75;;;;;;;;;;5070715;28;20269;-16
2022/07/23 07:14:42;;;;;;;0.95;0.52;;;;;;;;;;5067100;28;20230;-16
2022/07/23 07:17:10;;;;;;;1.17;0.70;;;;;;;;;;5059880;28;20225;-16
2022/07/23 07:19:37;;;;;;;0.80;0.70;;;;;;;;;;5071649;28;20715;-16
2022/07/23 07:22:05;;;;;;;0.60;0.60;;;;;;;;;;5056666;28;20329;-16
2022/07/23 07:24:34;;;;;;;2.55;0.70;;;;;;;;;;5070876;28;21139;-16
2022/07/23 07:27:05;;;;;;;2.38;0.75;;;;;;;;;;5068722;28;20280;-16
2022/07/23 07:29:32;;;;;;;2.17;0.80;;;;;;;;;;5070849;28;20279;-16
2022/07/23 07:31:59;;;;;;;1.48;0.90;;;;;;;;;;5056658;28;20255;-17
2022/07/23 07:34:27;;;;;;;1.10;0.65;;;;;;;;;;5070720;28;20235;-16
2022/07/23 07:36:54;;;;;;;1.58;1.05;;;;;;;;;;5052696;28;20284;-16
2022/07/23 07:39:22;;;;;;;0.85;0.52;;;;;;;;;;5055820;28;20229;-17
2022/07/23 07:41:50;;;;;;;1.10;0.80;;;;;;;;;;5070644;28;20869;-16
2022/07/23 07:44:18;;;;;;;2.30;0.70;;;;;;;;;;5065454;28;20250;-16
2022/07/23 07:46:45;;;;;;;1.52;0.73;;;;;;;;;;5061655;28;20237;-16
2022/07/23 07:49:13;;;;;;;3.45;0.80;;;;;;;;;;5064106;28;20312;-16
2022/07/23 07:51:42;;;;;;;1.02;0.70;;;;;;;;;;5057745;28;20246;-16
2022/07/23 07:54:11;;;;;;;1.40;0.80;;;;;;;;;;5064679;28;20835;-16
2022/07/23 07:56:39;;;;;;;1.10;0.73;;;;;;;;;;5062383;28;20784;-17
2022/07/23 07:59:11;;;;;;;1.20;0.85;;;;;;;;;;5073152;28;20237;-17
2022/07/23 08:01:38;;;;;;;1.10;0.90;;;;;;;;;;5054910;28;20233;-17
2022/07/23 08:04:05;;;;;;;1.63;0.82;;;;;;;;;;5073357;28;20275;-16
2022/07/23 08:06:33;;;;;;;1.02;0.60;;;;;;;;;;5046278;28;20225;-17
2022/07/23 08:09:00;;;;;;;1.13;0.75;;;;;;;;;;5061446;28;20711;-16
2022/07/23 08:11:28;;;;;;;0.90;0.60;;;;;;;;;;5064836;28;20240;-17
2022/07/23 08:13:55;;;;;;;1.45;0.70;;;;;;;;;;5073967;28;20240;-17
2022/07/23 08:16:24;;;;;;;1.23;0.80;;;;;;;;;;5059826;28;21000;-16
2022/07/23 08:18:51;;;;;;;0.98;0.80;;;;;;;;;;5073751;28;20236;-16
2022/07/23 08:21:19;;;;;;;1.50;0.55;;;;;;;;;;5048841;28;20226;-17
2022/07/23 08:23:46;;;;;;;2.90;0.90;;;;;;;;;;5061321;28;20595;-16
2022/07/23 08:26:13;;;;;;;1.83;0.70;;;;;;;;;;5073861;28;21011;-16
2022/07/23 08:28:41;;;;;;;1.50;0.75;;;;;;;;;;5039035;28;20242;-16
2022/07/23 08:31:10;;;;;;;1.42;0.80;;;;;;;;;;5057026;28;20256;-16
2022/07/23 08:33:39;;;;;;;1.98;0.70;;;;;;;;;;5064393;28;20259;-16
2022/07/23 08:36:07;;;;;;;1.48;0.60;;;;;;;;;;5073521;28;20830;-16
2022/07/23 08:38:35;;;;;;;2.28;0.82;;;;;;;;;;5073573;28;20263;-17
2022/07/23 08:41:04;;;;;;;1.02;0.65;;;;;;;;;;5045696;28;20233;-16
2022/07/23 08:43:32;;;;;;;0.93;0.70;;;;;;;;;;5069098;28;20222;-16
2022/07/23 08:46:00;;;;;;;1.73;0.90;;;;;;;;;;5069054;28;21013;-16
2022/07/23 08:48:29;;;;;;;1.70;0.82;;;;;;;;;;5062007;28;20232;-17
2022/07/23 08:50:59;;;;;;;1.63;0.75;;;;;;;;;;5063105;28;20653;-16
2022/07/23 08:53:28;;;;;;;2.30;0.73;;;;;;;;;;5072775;28;20256;-16
2022/07/23 08:55:56;;;;;;;1.30;1.00;;;;;;;;;;5060146;28;20230;-16
2022/07/23 08:58:24;;;;;;;1.13;0.80;;;;;;;;;;5073340;28;20710;-16
2022/07/23 09:00:56;;;;;;;0.68;0.52;;;;;;;;;;5067649;28;20653;-17
2022/07/23 09:03:24;;;;;;;0.80;0.60;;;;;;;;;;5073402;28;20308;-16
2022/07/23 09:05:51;;;;;;;2.40;0.85;;;;;;;;;;5065875;28;20238;-17
2022/07/23 09:08:21;;;;;;;1.20;0.63;;;;;;;;;;5073686;28;20237;-16
2022/07/23 09:10:50;;;;;;;0.73;0.68;;;;;;;;;;5073014;28;20240;-16
2022/07/23 09:13:27;;;;;;;1.90;0.70;;;;;;;;;;5067253;28;20226;-17
2022/07/23 09:15:55;;;;;;;1.88;0.70;;;;;;;;;;5059063;28;20230;-17
2022/07/23 09:18:28;;;;;;;1.20;0.60;;;;;;;;;;5057841;28;20233;-16
2022/07/23 09:21:05;;;;;;;2.67;0.75;;;;;;;;;;5063296;28;20230;-16
2022/07/23 09:23:39;;;;;;;1.35;0.80;;;;;;;;;;5038260;28;20304;-17
2022/07/23 09:26:17;;;;;;;0.73;0.63;;;;;;;;;;5065742;28;20248;-16
2022/07/23 09:28:51;;;;;;;1.15;0.70;;;;;;;;;;5065459;28;20234;-16
2022/07/23 09:31:19;;;;;;;2.03;0.70;;;;;;;;;;5062565;28;20592;-16
2022/07/23 09:33:46;;;;;;;1.65;0.60;;;;;;;;;;5045157;28;20973;-16
2022/07/23 09:36:14;;;;;;;1.38;0.77;;;;;;;;;;5072584;28;20715;-17
2022/07/23 09:38:49;;;;;;;1.88;0.80;;;;;;;;;;5067989;28;20701;-16
2022/07/23 09:41:17;;;;;;;0.93;0.60;;;;;;;;;;5072794;28;20236;-16
2022/07/23 09:43:44;;;;;;;1.00;0.60;;;;;;;;;;5071920;28;20984;-16
2022/07/23 09:46:18;;;;;;;1.20;0.85;;;;;;;;;;5069388;28;21050;-16
2022/07/23 09:48:46;;;;;;;1.77;0.70;;;;;;;;;;5072369;28;20704;-16
2022/07/23 09:51:15;;;;;;;1.42;0.70;;;;;;;;;;5054189;28;20259;-16
2022/07/23 09:53:42;;;;;;;1.55;0.80;;;;;;;;;;5072423;28;20236;-16
2022/07/23 09:56:11;;;;;;;0.85;0.70;;;;;;;;;;5072318;28;20344;-17
2022/07/23 09:58:44;;;;;;;1.67;1.00;;;;;;;;;;5061275;28;20244;-16
2022/07/23 10:01:11;;;;;;;1.05;0.75;;;;;;;;;;5068502;28;20259;-17
2022/07/23 10:03:39;;;;;;;1.58;0.82;;;;;;;;;;5072179;28;20230;-17
2022/07/23 10:06:06;;;;;;;0.80;0.63;;;;;;;;;;5072080;28;20241;-16
2022/07/23 10:08:34;;;;;;;1.30;0.70;;;;;;;;;;5062662;28;20237;-17
2022/07/23 10:11:01;;;;;;;1.17;0.80;;;;;;;;;;5066959;28;20237;-16
2022/07/23 10:16:20;;;;;;;1.70;0.85;;;;;;;;;;5052820;28;20218;-17
2022/07/23 10:18:53;;;;;;;1.15;0.60;;;;;;;;;;5057467;28;20231;-17
2022/07/23 10:21:22;;;;;;;1.27;0.88;;;;;;;;;;5049142;28;20237;-17
2022/07/23 10:23:52;;;;;;;1.33;0.70;;;;;;;;;;5064679;28;20234;-16
2022/07/23 10:26:34;;;;;;;0.80;0.70;;;;;;;;;;5070959;28;20329;-17
2022/07/23 10:29:06;;;;;;;1.00;0.77;;;;;;;;;;5060884;28;20234;-16
2022/07/23 10:31:38;;;;;;;1.55;0.77;;;;;;;;;;5057208;28;20726;-16
2022/07/23 10:34:26;;;;;;;1.27;0.82;;;;;;;;;;5059599;28;20234;-17
2022/07/23 10:36:54;;;;;;;1.05;0.82;;;;;;;;;;5065941;28;20240;-17
2022/07/23 10:39:23;;;;;;;2.05;0.98;;;;;;;;;;5057844;28;20237;-17
2022/07/23 10:41:50;;;;;;;1.67;0.93;;;;;;;;;;5071716;28;20260;-16
2022/07/23 10:44:19;;;;;;;1.52;0.77;;;;;;;;;;5054695;28;20232;-17
2022/07/23 10:47:06;;;;;;;1.98;0.93;;;;;;;;;;5062420;28;20245;-16
2022/07/23 10:49:33;;;;;;;0.98;0.88;;;;;;;;;;5047088;28;20225;-16
2022/07/23 10:52:17;;;;;;;1.60;0.80;;;;;;;;;;5059138;28;20234;-16
2022/07/23 10:54:45;;;;;;;1.50;0.80;;;;;;;;;;5038123;28;20245;-17
2022/07/23 10:57:12;;;;;;;0.88;0.75;;;;;;;;;;5063647;28;20229;-16
2022/07/23 10:59:59;;;;;;;1.10;0.70;;;;;;;;;;5065505;28;20233;-16
2022/07/23 11:02:28;;;;;;;1.15;0.80;;;;;;;;;;5051245;28;20320;-17
2022/07/23 11:04:57;;;;;;;2.25;1.33;;;;;;;;;;5071192;28;20225;-17
2022/07/23 11:07:26;;;;;;;1.17;0.80;;;;;;;;;;5056954;28;20323;-17
2022/07/23 11:09:53;;;;;;;1.85;0.80;;;;;;;;;;5070348;28;21034;-17
2022/07/23 11:12:36;;;;;;;1.73;0.90;;;;;;;;;;5071230;28;20225;-16
2022/07/23 11:15:07;;;;;;;0.93;0.80;;;;;;;;;;5065103;28;20328;-17
2022/07/23 11:17:36;;;;;;;0.60;0.60;;;;;;;;;;5043302;28;20704;-16
2022/07/23 11:20:18;;;;;;;0.82;0.82;;;;;;;;;;5045658;28;20240;-17
2022/07/23 11:22:52;;;;;;;2.42;0.88;;;;;;;;;;5071006;28;20245;-16
2022/07/23 11:25:30;;;;;;;2.58;1.20;;;;;;;;;;5037017;28;20752;-16
2022/07/23 11:28:08;;;;;;;1.27;0.90;;;;;;;;;;5051022;28;20333;-17
2022/07/23 11:30:38;;;;;;;2.22;1.00;;;;;;;;;;5053576;28;20234;-16
2022/07/23 11:33:21;;;;;;;1.00;0.90;;;;;;;;;;5065077;28;20236;-17
2022/07/23 11:35:49;;;;;;;2.55;0.80;;;;;;;;;;5070828;28;20240;-17
2022/07/23 11:38:17;;;;;;;1.70;0.88;;;;;;;;;;5070827;28;20765;-16
2022/07/23 11:40:45;;;;;;;1.10;0.73;;;;;;;;;;5059814;28;20251;-16
2022/07/23 11:43:12;;;;;;;1.80;1.10;;;;;;;;;;5070714;28;20237;-16
2022/07/23 11:45:40;;;;;;;1.50;1.00;;;;;;;;;;5067465;28;20230;-17
2022/07/23 11:48:08;;;;;;;1.70;0.90;;;;;;;;;;5065576;28;21185;-16
2022/07/23 11:50:36;;;;;;;1.05;0.80;;;;;;;;;;5052927;28;20231;-17
2022/07/23 11:53:04;;;;;;;5.18;1.30;;;;;;;;;;5063606;28;20234;-16
2022/07/23 11:55:31;;;;;;;1.60;1.20;;;;;;;;;;5063784;28;20324;-17
2022/07/23 11:57:58;;;;;;;1.02;0.93;;;;;;;;;;5056285;28;20259;-17
2022/07/23 12:00:27;;;;;;;1.30;1.10;;;;;;;;;;5067199;28;20257;-17
2022/07/23 12:02:56;;;;;;;1.05;0.90;;;;;;;;;;5060417;28;21053;-17
2022/07/23 12:05:26;;;;;;;2.10;1.20;;;;;;;;;;5059966;28;20256;-17
2022/07/23 12:07:55;;;;;;;1.23;1.10;;;;;;;;;;5050078;28;20249;-16
2022/07/23 12:10:23;;;;;;;2.20;1.05;;;;;;;;;;5050376;28;20234;-16
2022/07/23 12:12:51;;;;;;;1.35;1.20;;;;;;;;;;5050899;28;20685;-16
2022/07/23 12:15:18;;;;;;;2.08;1.05;;;;;;;;;;5049482;28;20329;-17
2022/07/23 12:17:46;;;;;;;2.33;1.20;;;;;;;;;;5064437;28;20328;-16
2022/07/23 12:20:19;;;;;;;1.30;1.10;;;;;;;;;;5039854;28;20234;-16
2022/07/23 12:22:46;;;;;;;3.22;1.20;;;;;;;;;;5048856;28;20242;-17
2022/07/23 12:25:15;;;;;;;1.50;1.02;;;;;;;;;;5050198;28;20230;-16
2022/07/23 12:27:43;;;;;;;1.52;1.10;;;;;;;;;;5062594;28;20824;-17
2022/07/23 12:30:17;;;;;;;1.35;1.00;;;;;;;;;;5069117;28;20229;-17
2022/07/23 12:32:44;;;;;;;1.48;1.10;;;;;;;;;;5061865;28;20234;-17
2022/07/23 12:35:12;;;;;;;1.38;1.00;;;;;;;;;;5064726;28;20238;-17
2022/07/23 12:37:39;;;;;;;2.33;1.48;;;;;;;;;;5056340;28;20229;-16
2022/07/23 12:40:21;;;;;;;2.03;1.20;;;;;;;;;;5069439;28;20238;-17
2022/07/23 12:42:49;;;;;;;1.20;1.10;;;;;;;;;;5046418;28;20256;-17
2022/07/23 12:45:17;;;;;;;1.20;1.10;;;;;;;;;;5063150;28;20727;-16
2022/07/23 12:47:59;;;;;;;3.33;1.20;;;;;;;;;;5069057;28;20540;-16
2022/07/23 12:50:47;;;;;;;1.23;1.08;;;;;;;;;;5060438;28;20233;-17
2022/07/23 12:53:15;;;;;;;2.08;1.20;;;;;;;;;;5043524;28;20225;-17
2022/07/23 12:55:47;;;;;;;1.70;1.30;;;;;;;;;;5058497;28;20238;-16
2022/07/23 12:58:41;;;;;;;1.80;1.23;;;;;;;;;;5073133;28;20723;-17
2022/07/23 13:01:09;;;;;;;2.15;1.52;;;;;;;;;;5067647;28;20225;-17
2022/07/23 13:03:39;;;;;;;1.95;1.20;;;;;;;;;;5073134;28;20609;-17
2022/07/23 13:06:07;;;;;;;1.65;1.40;;;;;;;;;;5058301;28;20236;-16
2022/07/23 13:08:35;;;;;;;2.53;1.35;;;;;;;;;;5061131;28;20232;-16
2022/07/23 13:11:04;;;;;;;2.78;1.40;;;;;;;;;;5058891;28;20611;-16
2022/07/23 13:13:32;;;;;;;2.22;1.00;;;;;;;;;;5073393;28;20257;-17
2022/07/23 13:15:59;;;;;;;2.90;1.52;;;;;;;;;;5065244;28;20316;-16
2022/07/23 13:18:27;;;;;;;1.60;1.30;;;;;;;;;;5048619;28;20225;-17
2022/07/23 13:20:55;;;;;;;1.65;1.40;;;;;;;;;;5072771;28;20235;-16
2022/07/23 13:23:22;;;;;;;1.70;1.35;;;;;;;;;;5071979;28;20245;-17
2022/07/23 13:25:52;;;;;;;2.45;1.52;;;;;;;;;;5061602;28;20238;-16
2022/07/23 13:28:21;;;;;;;3.20;1.55;;;;;;;;;;5067277;28;20233;-16
2022/07/23 13:30:49;;;;;;;2.70;1.75;;;;;;;;;;5055586;28;20241;-16
2022/07/23 13:33:17;;;;;;;3.10;1.55;;;;;;;;;;5068730;28;21062;-16
2022/07/23 13:35:45;;;;;;;2.50;1.65;;;;;;;;;;5068427;28;20226;-17
2022/07/23 13:38:13;;;;;;;2.05;1.55;;;;;;;;;;5063331;28;20585;-17
2022/07/23 13:40:44;;;;;;;2.70;1.65;;;;;;;;;;5058236;28;20226;-16
2022/07/23 13:43:12;;;;;;;2.95;1.63;;;;;;;;;;5052322;28;20234;-17
2022/07/23 13:45:42;;;;;;;2.08;1.40;;;;;;;;;;5065641;28;20238;-17
2022/07/23 13:48:09;;;;;;;2.10;1.40;;;;;;;;;;5057614;28;20326;-16
2022/07/23 13:50:37;;;;;;;2.65;1.40;;;;;;;;;;5058102;28;20248;-16
2022/07/23 13:53:04;;;;;;;2.78;1.90;;;;;;;;;;5063909;28;20230;-16
2022/07/23 13:55:32;;;;;;;1.70;1.48;;;;;;;;;;5065457;28;21023;-17
2022/07/23 13:58:00;;;;;;;1.73;1.60;;;;;;;;;;5051995;28;20234;-16
2022/07/23 14:00:27;;;;;;;2.30;1.60;;;;;;;;;;5052027;28;20226;-17
2022/07/23 14:03:16;;;;;;;1.80;1.70;;;;;;;;;;5056389;28;20237;-16
2022/07/23 14:05:44;;;;;;;1.65;1.55;;;;;;;;;;5072191;28;20233;-16
2022/07/23 14:08:11;;;;;;;2.70;1.67;;;;;;;;;;5066370;28;20241;-17
2022/07/23 14:10:41;;;;;;;2.53;1.80;;;;;;;;;;5064259;28;20238;-16
2022/07/23 14:13:09;;;;;;;2.08;1.60;;;;;;;;;;5057382;28;20879;-17
2022/07/23 14:15:40;;;;;;;1.88;1.45;;;;;;;;;;5061837;28;20221;-16
2022/07/23 14:18:07;;;;;;;2.13;1.50;;;;;;;;;;5064474;28;21064;-16
2022/07/23 14:20:36;;;;;;;2.03;1.70;;;;;;;;;;5071362;28;20230;-16
2022/07/23 14:23:04;;;;;;;2.63;1.90;;;;;;;;;;5057303;28;20245;-17
2022/07/23 14:25:32;;;;;;;1.95;1.75;;;;;;;;;;5059810;28;20774;-16
2022/07/23 14:28:00;;;;;;;2.35;1.65;;;;;;;;;;5071532;28;20265;-16
2022/07/23 14:30:27;;;;;;;3.00;1.70;;;;;;;;;;5051648;28;20358;-17
2022/07/23 14:33:01;;;;;;;2.05;1.73;;;;;;;;;;5065854;28;20337;-16
2022/07/23 14:35:28;;;;;;;3.35;1.83;;;;;;;;;;5050929;28;20229;-17
2022/07/23 14:37:57;;;;;;;3.25;2.00;;;;;;;;;;5051863;28;20324;-16
2022/07/23 14:40:24;;;;;;;2.97;1.80;;;;;;;;;;5066710;28;20334;-17
2022/07/23 14:42:52;;;;;;;2.85;1.80;;;;;;;;;;5071732;28;20234;-17
2022/07/23 14:45:20;;;;;;;2.67;1.90;;;;;;;;;;5056461;28;20230;-17
2022/07/23 14:47:47;;;;;;;1.90;1.70;;;;;;;;;;5069677;28;20244;-17
2022/07/23 14:50:15;;;;;;;2.65;1.92;;;;;;;;;;5071247;28;20248;-17
2022/07/23 14:52:43;;;;;;;2.00;1.65;;;;;;;;;;5067081;28;20240;-17
2022/07/23 14:55:12;;;;;;;2.90;1.98;;;;;;;;;;5061523;28;20312;-17